createdAt,value
2023-05-13T00:01:20.902Z,8.00
2023-05-13T00:03:51.738Z,9.63
2023-05-13T00:06:22.159Z,8.10
2023-05-13T00:08:52.762Z,9.70
2023-05-13T00:11:23.311Z,9.25
2023-05-13T00:13:53.816Z,9.65
2023-05-13T00:16:25.945Z,10.75
2023-05-13T00:18:57.479Z,9.10
2023-05-13T00:21:27.760Z,16.75
2023-05-13T00:23:58.655Z,16.92
2023-05-13T00:26:29.052Z,15.50
2023-05-13T00:28:59.547Z,15.90
2023-05-13T00:31:30.153Z,16.08
2023-05-13T00:34:00.706Z,15.10
2023-05-13T00:36:31.392Z,16.63
2023-05-13T00:39:01.860Z,16.88
2023-05-13T00:41:50.192Z,22.60
2023-05-13T00:44:20.883Z,19.10
2023-05-13T00:46:52.497Z,21.80
2023-05-13T00:49:23.382Z,19.75
2023-05-13T00:51:56.650Z,16.42
2023-05-13T00:54:27.057Z,28.80
2023-05-13T00:56:58.464Z,25.35
2023-05-13T00:59:32.605Z,18.45
2023-05-13T01:02:20.204Z,15.70
2023-05-13T01:05:22.009Z,14.45
2023-05-13T01:08:06.107Z,12.43
2023-05-13T01:10:51.207Z,11.32
2023-05-13T01:13:26.723Z,10.30
2023-05-13T01:16:17.072Z,9.90
2023-05-13T01:18:59.505Z,9.70
2023-05-13T01:21:31.177Z,9.83
2023-05-13T01:24:01.621Z,10.30
2023-05-13T01:26:32.132Z,10.65
2023-05-13T01:29:02.907Z,9.55
2023-05-13T01:31:34.144Z,10.10
2023-05-13T01:34:07.816Z,9.75
2023-05-13T01:36:39.054Z,8.98
2023-05-13T01:39:10.951Z,8.98
2023-05-13T01:41:41.498Z,9.07
2023-05-13T01:44:12.037Z,9.27
2023-05-13T01:46:44.789Z,9.52
2023-05-13T01:49:15.808Z,8.55
2023-05-13T01:51:47.966Z,7.95
2023-05-13T01:54:18.394Z,8.70
2023-05-13T01:56:54.520Z,7.90
2023-05-13T01:59:25.015Z,8.98
2023-05-13T02:01:56.318Z,9.32
2023-05-13T02:04:29.640Z,9.00
2023-05-13T02:07:01.211Z,9.90
2023-05-13T02:09:34.144Z,10.82
2023-05-13T02:12:04.868Z,11.70
2023-05-13T02:14:53.305Z,9.73
2023-05-13T02:17:24.407Z,9.55
2023-05-13T02:19:55.884Z,9.88
2023-05-13T02:22:26.568Z,9.80
2023-05-13T02:24:57.090Z,8.52
2023-05-13T02:27:27.783Z,7.88
2023-05-13T02:29:58.326Z,8.88
2023-05-13T02:32:29.017Z,8.65
2023-05-13T02:34:59.629Z,8.40
2023-05-13T02:37:30.047Z,8.05
2023-05-13T02:40:05.139Z,8.13
2023-05-13T02:42:35.632Z,8.10
2023-05-13T02:45:06.314Z,8.13
2023-05-13T02:47:39.231Z,7.97
2023-05-13T02:50:11.718Z,7.70
2023-05-13T02:52:43.222Z,8.30
2023-05-13T02:55:13.701Z,8.88
2023-05-13T02:57:45.740Z,8.85
2023-05-13T03:00:16.991Z,7.65
2023-05-13T03:02:47.484Z,8.00
2023-05-13T03:05:18.054Z,8.23
2023-05-13T03:07:49.237Z,7.78
2023-05-13T03:10:19.973Z,7.93
2023-05-13T03:12:50.479Z,11.98
2023-05-13T03:15:22.185Z,9.68
2023-05-13T03:18:10.648Z,8.88
2023-05-13T03:20:41.152Z,8.85
2023-05-13T03:23:11.631Z,7.93
2023-05-13T03:25:42.273Z,8.07
2023-05-13T03:28:12.784Z,7.15
2023-05-13T03:30:46.237Z,7.35
2023-05-13T03:33:20.750Z,7.40
2023-05-13T03:35:51.480Z,5.90
2023-05-13T03:38:27.454Z,6.10
2023-05-13T03:40:58.067Z,6.07
2023-05-13T03:43:28.970Z,5.55
2023-05-13T03:46:04.162Z,6.20
2023-05-13T03:48:34.659Z,5.05
2023-05-13T03:51:05.866Z,5.30
2023-05-13T03:53:36.548Z,5.05
2023-05-13T03:56:07.543Z,5.32
2023-05-13T03:58:55.980Z,4.53
2023-05-13T04:01:27.315Z,4.88
2023-05-13T04:03:57.856Z,5.00
2023-05-13T04:06:28.253Z,4.47
2023-05-13T04:08:58.618Z,4.70
2023-05-13T04:11:29.289Z,4.82
2023-05-13T04:14:00.254Z,4.60
2023-05-13T04:16:49.068Z,4.30
2023-05-13T04:19:19.621Z,4.35
2023-05-13T04:21:50.194Z,4.07
2023-05-13T04:24:20.562Z,4.30
2023-05-13T04:26:52.112Z,4.28
2023-05-13T04:29:22.363Z,3.75
2023-05-13T04:31:53.675Z,4.07
2023-05-13T04:34:24.280Z,3.83
2023-05-13T04:36:55.325Z,3.17
2023-05-13T04:39:25.771Z,3.83
2023-05-13T04:41:56.030Z,3.65
2023-05-13T04:44:26.861Z,3.55
2023-05-13T04:46:57.281Z,3.70
2023-05-13T04:49:27.956Z,3.42
2023-05-13T04:51:59.082Z,3.40
2023-05-13T04:54:29.696Z,3.28
2023-05-13T04:57:00.203Z,3.35
2023-05-13T04:59:30.813Z,3.40
2023-05-13T05:02:01.260Z,3.78
2023-05-13T05:04:31.889Z,3.17
2023-05-13T05:07:02.654Z,3.33
2023-05-13T05:09:33.091Z,3.45
2023-05-13T05:12:03.509Z,3.70
2023-05-13T05:14:35.974Z,3.83
2023-05-13T05:17:06.622Z,3.50
2023-05-13T05:19:37.144Z,3.67
2023-05-13T05:22:08.211Z,3.67
2023-05-13T05:24:38.830Z,3.92
2023-05-13T05:27:09.192Z,3.20
2023-05-13T05:29:39.684Z,3.95
2023-05-13T05:32:10.543Z,3.67
2023-05-13T05:34:41.636Z,3.75
2023-05-13T05:37:12.626Z,3.60
2023-05-13T05:39:44.445Z,3.63
2023-05-13T05:42:15.420Z,3.70
2023-05-13T05:44:46.064Z,4.40
2023-05-13T05:47:16.631Z,3.97
2023-05-13T05:49:47.897Z,3.75
2023-05-13T05:52:19.055Z,4.20
2023-05-13T05:54:49.737Z,4.35
2023-05-13T05:57:20.626Z,4.38
2023-05-13T05:59:51.482Z,4.30
2023-05-13T06:02:21.935Z,4.30
2023-05-13T06:04:54.630Z,4.28
2023-05-13T06:07:25.087Z,5.20
2023-05-13T06:09:55.825Z,4.97
2023-05-13T06:12:26.512Z,4.65
2023-05-13T06:14:57.261Z,4.65
2023-05-13T06:17:28.044Z,4.85
2023-05-13T06:19:58.530Z,4.20
2023-05-13T06:22:28.974Z,5.05
2023-05-13T06:24:59.474Z,5.35
2023-05-13T06:27:29.917Z,4.82
2023-05-13T06:30:00.430Z,5.07
2023-05-13T06:32:30.854Z,4.70
2023-05-13T06:35:01.175Z,4.75
2023-05-13T06:37:31.948Z,5.05
2023-05-13T06:40:02.874Z,4.55
2023-05-13T06:45:14.301Z,4.32
2023-05-13T06:47:45.427Z,4.53
2023-05-13T06:50:15.870Z,4.25
2023-05-13T06:52:46.355Z,3.80
2023-05-13T06:55:18.163Z,5.05
2023-05-13T06:57:48.734Z,4.30
2023-05-13T07:00:19.872Z,4.00
2023-05-13T07:02:50.421Z,4.07
2023-05-13T07:05:20.845Z,4.10
2023-05-13T07:07:55.062Z,4.07
2023-05-13T07:10:25.682Z,3.47
2023-05-13T07:12:56.006Z,3.75
2023-05-13T07:15:26.699Z,3.55
2023-05-13T07:17:57.631Z,3.67
2023-05-13T07:20:28.651Z,3.60
2023-05-13T07:23:17.062Z,3.67
2023-05-13T07:25:47.628Z,3.42
2023-05-13T07:28:18.097Z,3.45
2023-05-13T07:30:48.715Z,3.70
2023-05-13T07:33:19.196Z,4.18
2023-05-13T07:35:49.632Z,3.85
2023-05-13T07:38:20.660Z,3.65
2023-05-13T07:40:51.326Z,3.45
2023-05-13T07:43:25.284Z,3.78
2023-05-13T07:45:55.823Z,3.88
2023-05-13T07:48:27.267Z,3.80
2023-05-13T07:50:59.333Z,3.67
2023-05-13T07:53:29.896Z,3.42
2023-05-13T07:56:00.292Z,4.18
2023-05-13T07:58:30.746Z,3.33
2023-05-13T08:01:01.387Z,3.47
2023-05-13T08:03:31.982Z,3.95
2023-05-13T08:06:02.506Z,3.78
2023-05-13T08:08:32.916Z,3.10
2023-05-13T08:11:03.335Z,3.55
2023-05-13T08:13:33.841Z,3.45
2023-05-13T08:16:05.035Z,3.63
2023-05-13T08:18:35.856Z,3.50
2023-05-13T08:21:06.534Z,3.25
2023-05-13T08:23:45.287Z,3.38
2023-05-13T08:26:16.575Z,3.20
2023-05-13T08:28:48.027Z,3.30
2023-05-13T08:31:18.669Z,3.15
2023-05-13T08:33:50.135Z,3.40
2023-05-13T08:36:21.253Z,2.92
2023-05-13T08:38:51.833Z,3.45
2023-05-13T08:41:24.264Z,3.10
2023-05-13T08:43:58.845Z,3.08
2023-05-13T08:46:38.178Z,3.05
2023-05-13T08:49:11.059Z,3.03
2023-05-13T08:51:42.608Z,3.13
2023-05-13T08:54:13.287Z,2.90
2023-05-13T08:56:43.664Z,2.65
2023-05-13T08:59:14.016Z,2.95
2023-05-13T09:01:45.858Z,2.67
2023-05-13T09:04:16.515Z,2.45
2023-05-13T09:06:50.322Z,2.65
2023-05-13T09:09:21.110Z,2.75
2023-05-13T09:11:52.061Z,2.60
2023-05-13T09:14:22.552Z,2.45
2023-05-13T09:16:53.335Z,2.22
2023-05-13T09:19:26.848Z,2.17
2023-05-13T09:21:59.113Z,2.35
2023-05-13T09:24:29.879Z,2.20
2023-05-13T09:27:00.310Z,2.55
2023-05-13T09:29:33.518Z,2.60
2023-05-13T09:32:09.181Z,2.03
2023-05-13T09:34:39.646Z,2.25
2023-05-13T09:37:11.038Z,2.30
2023-05-13T09:39:43.426Z,2.58
2023-05-13T09:42:21.628Z,2.33
2023-05-13T09:44:52.239Z,2.40
2023-05-13T09:47:22.718Z,2.40
2023-05-13T09:49:59.540Z,2.88
2023-05-13T09:52:35.304Z,2.38
2023-05-13T09:55:06.952Z,2.00
2023-05-13T09:57:37.758Z,2.47
2023-05-13T10:00:17.845Z,2.42
2023-05-13T10:02:55.861Z,2.22
2023-05-13T10:05:26.974Z,2.30
2023-05-13T10:07:58.875Z,2.45
2023-05-13T10:10:32.346Z,2.65
2023-05-13T10:13:10.822Z,1.85
2023-05-13T10:15:54.756Z,2.67
2023-05-13T10:18:26.410Z,2.42
2023-05-13T10:20:57.680Z,2.70
2023-05-13T10:23:49.139Z,2.35
2023-05-13T10:26:19.773Z,2.42
2023-05-13T10:28:51.166Z,2.30
2023-05-13T10:31:21.767Z,2.63
2023-05-13T10:33:55.691Z,2.72
2023-05-13T10:36:41.070Z,2.22
2023-05-13T10:39:48.514Z,2.30
2023-05-13T10:42:39.813Z,2.70
2023-05-13T10:45:11.653Z,2.60
2023-05-13T10:48:08.986Z,2.35
2023-05-13T10:50:43.526Z,3.10
2023-05-13T10:53:24.454Z,2.80
2023-05-13T10:56:02.030Z,2.47
2023-05-13T10:58:39.372Z,2.60
2023-05-13T11:01:16.277Z,2.72
2023-05-13T11:03:58.076Z,2.90
2023-05-13T11:06:39.601Z,2.63
2023-05-13T11:09:14.396Z,2.60
2023-05-13T11:12:03.249Z,2.85
2023-05-13T11:14:51.632Z,3.00
2023-05-13T11:17:22.330Z,2.80
2023-05-13T11:19:53.547Z,2.70
2023-05-13T11:22:29.146Z,2.90
2023-05-13T11:25:11.041Z,3.47
2023-05-13T11:27:45.237Z,2.75
2023-05-13T11:30:28.231Z,3.05
2023-05-13T11:33:00.581Z,2.45
2023-05-13T11:35:35.068Z,2.73
2023-05-13T11:38:07.260Z,2.83
2023-05-13T11:40:40.380Z,2.90
2023-05-13T11:43:13.747Z,2.65
2023-05-13T11:48:22.369Z,2.85
2023-05-13T11:50:53.555Z,2.72
2023-05-13T11:53:24.549Z,3.22
2023-05-13T11:55:55.018Z,3.03
2023-05-13T11:58:25.555Z,2.83
2023-05-13T12:00:57.469Z,2.97
2023-05-13T12:03:30.417Z,2.60
2023-05-13T12:08:37.805Z,2.83
2023-05-13T12:11:11.668Z,2.97
2023-05-13T12:13:44.260Z,3.17
2023-05-13T12:16:14.744Z,3.00
2023-05-13T12:18:45.208Z,3.10
2023-05-13T12:21:19.584Z,2.90
2023-05-13T12:23:50.227Z,3.38
2023-05-13T12:26:21.663Z,2.90
2023-05-13T12:29:00.498Z,3.20
2023-05-13T12:31:30.994Z,3.53
2023-05-13T12:34:01.387Z,2.85
2023-05-13T12:36:37.763Z,2.60
2023-05-13T12:39:13.001Z,2.60
2023-05-13T12:41:45.314Z,2.83
2023-05-13T12:44:17.249Z,3.10
2023-05-13T12:47:02.871Z,3.08
2023-05-13T12:49:33.272Z,3.10
2023-05-13T12:52:23.164Z,3.30
2023-05-13T12:54:53.637Z,2.97
2023-05-13T12:57:24.452Z,3.53
2023-05-13T12:59:55.278Z,3.40
2023-05-13T13:02:25.724Z,3.40
2023-05-13T13:04:56.227Z,2.95
2023-05-13T13:07:26.642Z,3.13
2023-05-13T13:09:57.121Z,2.95
2023-05-13T13:12:27.719Z,3.10
2023-05-13T13:14:59.189Z,3.63
2023-05-13T13:17:29.835Z,3.40
2023-05-13T13:20:00.249Z,2.97
2023-05-13T13:22:31.013Z,3.25
2023-05-13T13:25:01.491Z,3.22
2023-05-13T13:27:31.913Z,3.45
2023-05-13T13:30:02.366Z,3.30
2023-05-13T13:32:33.327Z,3.92
2023-05-13T13:35:04.977Z,3.22
2023-05-13T13:37:36.196Z,3.38
2023-05-13T13:40:09.928Z,3.70
2023-05-13T13:42:44.540Z,3.55
2023-05-13T13:45:16.248Z,3.40
2023-05-13T13:47:46.962Z,3.53
2023-05-13T13:50:17.453Z,3.20
2023-05-13T13:52:47.895Z,3.50
2023-05-13T13:55:18.510Z,3.70
2023-05-13T13:57:49.139Z,3.97
2023-05-13T14:00:20.251Z,3.55
2023-05-13T14:02:50.820Z,4.05
2023-05-13T14:05:39.523Z,3.75
2023-05-13T14:08:10.073Z,3.65
2023-05-13T14:10:40.550Z,3.65
2023-05-13T14:13:11.173Z,3.83
2023-05-13T14:15:41.661Z,3.60
2023-05-13T14:18:12.460Z,3.38
2023-05-13T14:20:42.922Z,3.42
2023-05-13T14:23:13.296Z,3.75
2023-05-13T14:25:43.891Z,3.58
2023-05-13T14:28:14.863Z,3.58
2023-05-13T14:30:45.410Z,3.85
2023-05-13T14:33:15.875Z,3.92
2023-05-13T14:35:46.391Z,3.95
2023-05-13T14:38:17.155Z,3.97
2023-05-13T14:40:47.709Z,3.40
2023-05-13T14:43:18.242Z,3.60
2023-05-13T14:45:48.697Z,3.50
2023-05-13T14:48:19.374Z,3.65
2023-05-13T14:50:49.785Z,3.63
2023-05-13T14:53:20.236Z,3.50
2023-05-13T14:55:51.600Z,3.53
2023-05-13T14:58:22.192Z,3.70
2023-05-13T15:00:52.705Z,3.58
2023-05-13T15:03:23.194Z,3.53
2023-05-13T15:05:55.866Z,3.63
2023-05-13T15:08:26.960Z,3.85
2023-05-13T15:10:57.825Z,4.30
2023-05-13T15:13:28.803Z,3.95
2023-05-13T15:15:59.272Z,3.83
2023-05-13T15:18:29.793Z,3.53
2023-05-13T15:21:00.332Z,3.70
2023-05-13T15:23:31.020Z,4.28
2023-05-13T15:26:01.470Z,4.00
2023-05-13T15:28:31.852Z,3.83
2023-05-13T15:31:02.400Z,3.90
2023-05-13T15:33:34.107Z,4.03
2023-05-13T15:36:04.878Z,4.18
2023-05-13T15:38:35.316Z,3.80
2023-05-13T15:41:05.768Z,3.78
2023-05-13T15:43:36.202Z,3.72
2023-05-13T15:46:06.994Z,3.70
2023-05-13T15:48:38.028Z,4.18
2023-05-13T15:51:09.040Z,3.97
2023-05-13T15:53:39.470Z,3.88
2023-05-13T15:56:10.093Z,3.83
2023-05-13T15:58:58.743Z,3.70
2023-05-13T16:01:29.247Z,3.67
2023-05-13T16:03:59.721Z,3.65
2023-05-13T16:06:30.291Z,3.67
2023-05-13T16:09:03.505Z,3.88
2023-05-13T16:14:03.632Z,4.15
2023-05-13T16:16:34.174Z,3.88
2023-05-13T16:19:07.550Z,3.80
2023-05-13T16:21:42.080Z,3.85
2023-05-13T16:24:12.777Z,3.95
2023-05-13T16:26:43.365Z,3.70
2023-05-13T16:29:14.200Z,4.10
2023-05-13T16:31:44.682Z,4.18
2023-05-13T16:34:15.560Z,4.32
2023-05-13T16:36:45.913Z,4.05
2023-05-13T16:39:16.337Z,4.13
2023-05-13T16:41:46.737Z,4.10
2023-05-13T16:44:17.092Z,3.88
2023-05-13T16:46:47.481Z,4.10
2023-05-13T16:49:17.940Z,3.40
2023-05-13T16:51:48.390Z,3.83
2023-05-13T16:54:18.871Z,4.20
2023-05-13T16:56:51.885Z,4.22
2023-05-13T16:59:26.895Z,4.13
2023-05-13T17:01:57.719Z,3.78
2023-05-13T17:04:29.802Z,3.88
2023-05-13T17:07:00.208Z,4.68
2023-05-13T17:09:32.214Z,4.38
2023-05-13T17:12:02.712Z,4.00
2023-05-13T17:14:33.163Z,3.90
2023-05-13T17:17:04.646Z,4.43
2023-05-13T17:19:35.157Z,4.38
2023-05-13T17:22:08.412Z,4.03
2023-05-13T17:24:39.977Z,4.25
2023-05-13T17:27:10.973Z,4.28
2023-05-13T17:29:41.507Z,3.90
2023-05-13T17:32:12.080Z,4.05
2023-05-13T17:34:42.304Z,4.15
2023-05-13T17:37:12.909Z,4.68
2023-05-13T17:39:43.290Z,3.75
2023-05-13T17:42:13.657Z,4.78
2023-05-13T17:44:44.182Z,4.22
2023-05-13T17:47:14.918Z,4.70
2023-05-13T17:49:45.332Z,4.03
2023-05-13T17:52:16.088Z,4.60
2023-05-13T17:54:46.411Z,4.00
2023-05-13T17:57:17.270Z,4.40
2023-05-13T17:59:47.708Z,4.57
2023-05-13T18:02:18.424Z,4.65
2023-05-13T18:04:49.061Z,4.88
2023-05-13T18:07:22.565Z,4.40
2023-05-13T18:09:53.390Z,4.50
2023-05-13T18:12:23.951Z,4.32
2023-05-13T18:14:54.614Z,4.53
2023-05-13T18:17:25.267Z,3.65
2023-05-13T18:19:55.852Z,4.55
2023-05-13T18:22:26.318Z,4.63
2023-05-13T18:24:57.015Z,4.85
2023-05-13T18:27:27.527Z,4.47
2023-05-13T18:29:57.903Z,4.32
2023-05-13T18:32:28.357Z,4.68
2023-05-13T18:34:58.800Z,4.30
2023-05-13T18:37:29.229Z,4.22
2023-05-13T18:40:00.347Z,4.90
2023-05-13T18:42:31.475Z,4.53
2023-05-13T18:45:01.948Z,4.30
2023-05-13T18:47:32.370Z,4.90
2023-05-13T18:50:02.984Z,4.80
2023-05-13T18:52:33.384Z,4.93
2023-05-13T18:55:06.614Z,4.38
2023-05-13T18:57:37.514Z,4.55
2023-05-13T19:00:08.914Z,4.63
2023-05-13T19:02:39.751Z,4.32
2023-05-13T19:05:10.914Z,4.40
2023-05-13T19:07:41.392Z,4.55
2023-05-13T19:10:12.038Z,4.95
2023-05-13T19:12:42.625Z,4.45
2023-05-13T19:15:13.263Z,4.90
2023-05-13T19:17:43.942Z,4.55
2023-05-13T19:20:32.701Z,4.97
2023-05-13T19:23:03.084Z,4.85
2023-05-13T19:25:33.408Z,4.50
2023-05-13T19:28:06.754Z,4.65
2023-05-13T19:30:37.463Z,4.80
2023-05-13T19:33:09.084Z,5.47
2023-05-13T19:35:39.606Z,4.57
2023-05-13T19:38:10.078Z,4.80
2023-05-13T19:40:40.455Z,4.57
2023-05-13T19:43:11.102Z,4.65
2023-05-13T19:45:41.421Z,3.97
2023-05-13T19:48:11.780Z,5.05
2023-05-13T19:50:43.156Z,4.57
2023-05-13T19:53:14.085Z,4.50
2023-05-13T19:55:44.464Z,4.20
2023-05-13T19:58:15.102Z,4.32
2023-05-13T20:00:45.615Z,4.13
2023-05-13T20:03:16.239Z,3.80
2023-05-13T20:06:04.427Z,3.75
2023-05-13T20:08:35.251Z,3.70
2023-05-13T20:11:05.562Z,4.07
2023-05-13T20:13:36.221Z,3.65
2023-05-13T20:16:06.880Z,3.55
2023-05-13T20:18:37.811Z,3.53
2023-05-13T20:21:08.300Z,3.63
2023-05-13T20:23:38.824Z,3.95
2023-05-13T20:26:09.790Z,3.47
2023-05-13T20:28:40.185Z,3.33
2023-05-13T20:31:10.937Z,3.47
2023-05-13T20:33:41.604Z,3.30
2023-05-13T20:36:12.191Z,3.33
2023-05-13T20:38:42.773Z,3.25
2023-05-13T20:41:13.162Z,3.40
2023-05-13T20:43:43.566Z,3.20
2023-05-13T20:46:18.197Z,3.60
2023-05-13T20:48:49.481Z,3.35
2023-05-13T20:51:20.042Z,3.30
2023-05-13T20:53:50.493Z,3.70
2023-05-13T20:56:20.911Z,3.40
2023-05-13T20:58:51.880Z,3.70
2023-05-13T21:01:22.254Z,3.10
2023-05-13T21:03:52.903Z,2.90
2023-05-13T21:06:23.556Z,3.20
2023-05-13T21:08:54.262Z,2.97
2023-05-13T21:11:24.693Z,2.80
2023-05-13T21:14:13.217Z,3.10
2023-05-13T21:16:44.102Z,3.08
2023-05-13T21:19:24.739Z,3.20
2023-05-13T21:21:55.170Z,3.10
2023-05-13T21:24:25.512Z,2.85
2023-05-13T21:26:56.677Z,3.20
2023-05-13T21:29:27.885Z,3.20
2023-05-13T21:31:58.873Z,2.92
2023-05-13T21:34:29.400Z,3.10
2023-05-13T21:36:59.841Z,2.60
2023-05-13T21:39:30.259Z,2.65
2023-05-13T21:42:02.201Z,2.95
2023-05-13T21:44:32.600Z,2.80
2023-05-13T21:47:03.047Z,3.00
2023-05-13T21:49:33.506Z,2.83
2023-05-13T21:52:04.054Z,3.40
2023-05-13T21:54:34.621Z,3.08
2023-05-13T21:57:05.239Z,3.45
2023-05-13T21:59:35.496Z,4.00
2023-05-13T22:02:06.170Z,3.95
2023-05-13T22:04:36.518Z,3.88
2023-05-13T22:07:07.034Z,4.30
2023-05-13T22:09:37.636Z,4.18
2023-05-13T22:12:08.427Z,3.60
2023-05-13T22:14:38.852Z,4.18
2023-05-13T22:17:10.518Z,4.35
2023-05-13T22:19:41.355Z,3.40
2023-05-13T22:22:11.930Z,3.47
2023-05-13T22:24:42.336Z,3.60
2023-05-13T22:27:12.861Z,3.75
2023-05-13T22:29:43.278Z,4.03
2023-05-13T22:32:13.976Z,3.40
2023-05-13T22:34:44.566Z,4.03
2023-05-13T22:37:14.966Z,4.00
2023-05-13T22:39:45.272Z,3.95
2023-05-13T22:42:15.643Z,4.20
2023-05-13T22:44:46.514Z,3.67
2023-05-13T22:47:16.996Z,4.35
2023-05-13T22:49:47.372Z,3.47
2023-05-13T22:52:17.830Z,3.20
2023-05-13T22:54:48.101Z,3.67
2023-05-13T22:57:18.646Z,3.55
2023-05-13T22:59:49.218Z,4.07
2023-05-13T23:02:19.612Z,4.30
2023-05-13T23:04:50.035Z,3.85
2023-05-13T23:07:20.463Z,4.47
2023-05-13T23:09:50.887Z,5.00
2023-05-13T23:12:21.314Z,4.63
2023-05-13T23:14:51.757Z,4.18
2023-05-13T23:17:22.276Z,3.83
2023-05-13T23:19:52.924Z,4.50
2023-05-13T23:22:23.324Z,4.15
2023-05-13T23:24:53.872Z,3.85
2023-05-13T23:27:24.402Z,4.30
2023-05-13T23:29:55.009Z,4.38
2023-05-13T23:32:26.269Z,4.75
2023-05-13T23:34:56.473Z,4.53
2023-05-13T23:37:27.234Z,3.50
2023-05-13T23:40:15.967Z,4.50
2023-05-13T23:42:46.400Z,4.30
2023-05-13T23:45:17.500Z,3.65
2023-05-13T23:47:48.276Z,4.10
2023-05-13T23:50:18.575Z,3.03
2023-05-13T23:52:52.656Z,5.10
2023-05-13T23:55:23.214Z,7.57
2023-05-13T23:57:53.587Z,6.88
